createdAt,value
2018-06-11T00:01:41.956Z,18.00
2018-06-11T00:06:38.671Z,18.00
2018-06-11T00:09:08.057Z,18.00
2018-06-11T00:11:36.937Z,17.90
2018-06-11T00:14:05.698Z,17.90
2018-06-11T00:19:02.475Z,17.80
2018-06-11T00:21:30.963Z,17.70
2018-06-11T00:23:59.643Z,17.60
2018-06-11T00:26:28.149Z,17.60
2018-06-11T00:28:56.661Z,17.50
2018-06-11T00:31:25.187Z,17.40
2018-06-11T00:33:53.716Z,17.30
2018-06-11T00:36:22.211Z,17.30
2018-06-11T00:38:50.730Z,17.20
2018-06-11T00:41:19.236Z,17.10
2018-06-11T00:43:47.776Z,17.10
2018-06-11T00:46:16.285Z,17.00
2018-06-11T00:48:44.783Z,16.90
2018-06-11T00:51:13.969Z,16.90
2018-06-11T00:53:42.487Z,16.80
2018-06-11T00:56:11.004Z,16.70
2018-06-11T00:58:39.536Z,16.70
2018-06-11T01:01:08.039Z,16.60
2018-06-11T01:03:36.564Z,16.50
2018-06-11T01:06:05.143Z,16.50
2018-06-11T01:08:33.602Z,16.50
2018-06-11T01:11:02.107Z,16.40
2018-06-11T01:13:30.623Z,16.30
2018-06-11T01:15:59.144Z,16.20
2018-06-11T01:18:27.617Z,16.20
2018-06-11T01:20:56.120Z,16.10
2018-06-11T01:23:24.713Z,16.10
2018-06-11T01:25:53.379Z,16.00
2018-06-11T01:28:21.913Z,16.00
2018-06-11T01:33:18.847Z,15.90
2018-06-11T01:35:47.375Z,15.90
2018-06-11T01:40:44.024Z,15.90
2018-06-11T01:43:12.493Z,15.80
2018-06-11T01:45:41.011Z,15.80
2018-06-11T01:48:09.480Z,15.80
2018-06-11T01:50:37.992Z,15.70
2018-06-11T01:53:06.500Z,15.70
2018-06-11T01:55:35.003Z,15.70
2018-06-11T01:58:03.531Z,15.70
2018-06-11T02:03:00.307Z,15.70
2018-06-11T02:05:28.818Z,15.60
2018-06-11T02:07:57.270Z,15.60
2018-06-11T02:10:25.772Z,15.60
2018-06-11T02:12:54.261Z,15.60
2018-06-11T02:15:22.740Z,15.50
2018-06-11T02:17:51.245Z,15.50
2018-06-11T02:20:19.729Z,15.50
2018-06-11T02:22:48.358Z,15.60
2018-06-11T02:25:16.885Z,15.70
2018-06-11T02:27:45.345Z,15.70
2018-06-11T02:30:13.734Z,15.70
2018-06-11T02:32:42.213Z,15.80
2018-06-11T02:35:10.644Z,15.90
2018-06-11T02:37:39.104Z,15.90
2018-06-11T02:40:07.579Z,16.00
2018-06-11T02:45:04.232Z,16.10
2018-06-11T02:50:00.846Z,16.20
2018-06-11T02:52:29.290Z,16.20
2018-06-11T02:54:57.766Z,16.20
2018-06-11T02:57:26.200Z,16.20
2018-06-11T02:59:54.695Z,16.30
2018-06-11T03:02:23.147Z,16.30
2018-06-11T03:04:51.608Z,16.30
2018-06-11T03:07:20.082Z,16.40
2018-06-11T03:09:48.546Z,16.40
2018-06-11T03:12:17.007Z,16.50
2018-06-11T03:14:45.543Z,16.50
2018-06-11T03:17:14.020Z,16.50
2018-06-11T03:19:42.470Z,16.60
2018-06-11T03:22:10.914Z,16.60
2018-06-11T03:27:07.713Z,16.60
2018-06-11T03:29:36.175Z,16.70
2018-06-11T03:34:32.793Z,16.60
2018-06-11T03:37:01.246Z,16.60
2018-06-11T03:39:29.698Z,16.60
2018-06-11T03:41:59.111Z,16.60
2018-06-11T03:46:55.683Z,16.70
2018-06-11T03:51:52.372Z,16.70
2018-06-11T03:54:20.793Z,16.70
2018-06-11T03:56:49.230Z,16.70
2018-06-11T03:59:17.738Z,16.70
2018-06-11T04:01:46.223Z,16.70
2018-06-11T04:04:14.653Z,16.80
2018-06-11T04:06:43.134Z,16.80
2018-06-11T04:11:39.771Z,16.90
2018-06-11T04:14:08.189Z,16.90
2018-06-11T04:16:36.625Z,16.90
2018-06-11T04:19:05.237Z,16.90
2018-06-11T04:21:33.685Z,16.90
2018-06-11T04:24:03.099Z,16.90
2018-06-11T04:26:31.584Z,17.00
2018-06-11T04:29:00.238Z,17.00
2018-06-11T04:33:57.075Z,17.10
2018-06-11T04:38:53.808Z,17.00
2018-06-11T04:41:23.005Z,17.10
2018-06-11T04:43:51.672Z,17.10
2018-06-11T04:46:20.116Z,17.10
2018-06-11T04:48:48.598Z,17.10
2018-06-11T04:51:17.040Z,17.20
2018-06-11T04:53:45.604Z,17.20
2018-06-11T04:56:14.275Z,17.30
2018-06-11T04:58:42.856Z,17.30
2018-06-11T05:01:11.312Z,17.40
2018-06-11T05:03:39.789Z,17.40
2018-06-11T05:06:08.212Z,17.50
2018-06-11T05:08:36.667Z,17.50
2018-06-11T05:11:05.142Z,17.60
2018-06-11T05:13:33.909Z,17.60
2018-06-11T05:16:02.375Z,17.70
2018-06-11T05:18:30.877Z,17.70
2018-06-11T05:20:59.370Z,17.80
2018-06-11T05:23:27.933Z,17.80
2018-06-11T05:25:56.408Z,17.80
2018-06-11T05:28:24.879Z,17.80
2018-06-11T05:30:53.318Z,17.80
2018-06-11T05:33:21.943Z,17.90
2018-06-11T05:35:50.456Z,17.90
2018-06-11T05:38:18.880Z,18.00
2018-06-11T05:40:47.351Z,18.00
2018-06-11T05:45:43.917Z,18.10
2018-06-11T05:50:40.584Z,18.20
2018-06-11T05:53:09.093Z,18.30
2018-06-11T05:55:37.616Z,18.30
2018-06-11T05:58:06.115Z,18.40
2018-06-11T06:00:34.583Z,18.40
2018-06-11T06:03:03.050Z,18.50
2018-06-11T06:05:31.572Z,18.50
2018-06-11T06:08:00.061Z,18.60
2018-06-11T06:10:28.538Z,18.60
2018-06-11T06:12:57.043Z,18.70
2018-06-11T06:15:25.530Z,18.70
2018-06-11T06:20:22.152Z,18.80
2018-06-11T06:22:50.700Z,18.80
2018-06-11T06:25:19.159Z,18.80
2018-06-11T06:27:47.647Z,18.80
2018-06-11T06:30:16.138Z,18.80
2018-06-11T06:32:44.664Z,18.80
2018-06-11T06:35:13.146Z,18.80
2018-06-11T06:37:41.607Z,18.90
2018-06-11T06:40:10.079Z,19.00
2018-06-11T06:42:38.536Z,19.00
2018-06-11T06:45:06.973Z,19.10
2018-06-11T06:47:35.390Z,19.10
2018-06-11T06:50:03.871Z,19.10
2018-06-11T06:52:32.334Z,19.20
2018-06-11T06:55:00.843Z,19.30
2018-06-11T06:57:29.282Z,19.40
2018-06-11T06:59:57.755Z,19.50
2018-06-11T07:02:26.195Z,19.70
2018-06-11T07:04:54.766Z,19.80
2018-06-11T07:07:23.196Z,19.90
2018-06-11T07:09:51.642Z,20.00
2018-06-11T07:12:20.158Z,20.00
2018-06-11T07:14:48.578Z,20.10
2018-06-11T07:19:45.231Z,20.30
2018-06-11T07:22:13.702Z,20.40
2018-06-11T07:24:42.137Z,20.40
2018-06-11T07:27:10.654Z,20.40
2018-06-11T07:29:39.162Z,20.40
2018-06-11T07:32:07.631Z,20.40
2018-06-11T07:34:36.104Z,20.40
2018-06-11T07:37:04.573Z,20.40
2018-06-11T07:39:32.999Z,20.50
2018-06-11T07:42:01.449Z,20.50
2018-06-11T07:44:29.910Z,20.40
2018-06-11T07:46:58.405Z,20.40
2018-06-11T07:49:27.454Z,20.50
2018-06-11T07:51:55.911Z,20.50
2018-06-11T07:54:24.378Z,20.50
2018-06-11T07:56:52.838Z,20.60
2018-06-11T08:01:49.465Z,20.80
2018-06-11T08:04:17.958Z,20.80
2018-06-11T08:06:46.454Z,20.80
2018-06-11T08:09:14.913Z,20.70
2018-06-11T08:11:43.408Z,20.80
2018-06-11T08:14:11.900Z,20.90
2018-06-11T08:16:40.386Z,21.10
2018-06-11T08:19:08.848Z,21.20
2018-06-11T08:21:37.259Z,21.20
2018-06-11T08:24:05.775Z,21.20
2018-06-11T08:26:34.252Z,21.10
2018-06-11T08:29:02.725Z,21.10
2018-06-11T08:31:31.167Z,21.00
2018-06-11T08:33:59.938Z,21.10
2018-06-11T08:36:28.389Z,21.10
2018-06-11T08:38:56.826Z,21.10
2018-06-11T08:41:25.302Z,20.90
2018-06-11T08:43:53.742Z,20.80
2018-06-11T08:46:22.226Z,20.70
2018-06-11T08:48:50.701Z,20.70
2018-06-11T08:51:19.216Z,20.70
2018-06-11T08:56:15.812Z,21.10
2018-06-11T08:58:44.276Z,21.10
2018-06-11T09:01:12.724Z,21.10
2018-06-11T09:03:41.158Z,21.10
2018-06-11T09:06:09.725Z,21.20
2018-06-11T09:08:38.162Z,21.40
2018-06-11T09:11:06.646Z,21.60
2018-06-11T09:13:35.122Z,21.70
2018-06-11T09:16:03.602Z,21.70
2018-06-11T09:18:32.040Z,21.70
2018-06-11T09:21:00.519Z,21.70
2018-06-11T09:23:29.009Z,21.60
2018-06-11T09:25:57.456Z,21.70
2018-06-11T09:28:25.944Z,21.80
2018-06-11T09:30:54.392Z,22.00
2018-06-11T09:33:22.919Z,22.10
2018-06-11T09:35:53.125Z,22.30
2018-06-11T09:38:23.036Z,22.20
2018-06-11T09:40:51.507Z,22.10
2018-06-11T09:43:19.977Z,22.20
2018-06-11T09:45:48.415Z,22.40
2018-06-11T09:48:16.885Z,22.40
2018-06-11T09:50:45.363Z,22.50
2018-06-11T09:53:13.829Z,22.50
2018-06-11T09:55:42.357Z,22.60
2018-06-11T09:58:10.898Z,22.70
2018-06-11T10:00:39.372Z,22.70
2018-06-11T10:05:36.051Z,22.70
2018-06-11T10:08:04.526Z,22.60
2018-06-11T10:10:32.968Z,22.60
2018-06-11T10:13:01.440Z,22.70
2018-06-11T10:15:29.910Z,22.80
2018-06-11T10:17:58.395Z,23.00
2018-06-11T10:20:26.858Z,23.10
2018-06-11T10:22:55.321Z,23.20
2018-06-11T10:25:23.770Z,23.30
2018-06-11T10:27:52.265Z,23.40
2018-06-11T10:30:20.766Z,23.50
2018-06-11T10:32:49.391Z,23.40
2018-06-11T10:35:17.866Z,23.40
2018-06-11T10:37:46.311Z,23.30
2018-06-11T10:40:14.854Z,23.30
2018-06-11T10:42:43.288Z,23.40
2018-06-11T10:45:11.782Z,23.40
2018-06-11T10:47:40.270Z,23.30
2018-06-11T10:50:08.750Z,23.30
2018-06-11T10:52:37.220Z,23.50
2018-06-11T10:55:05.717Z,23.60
2018-06-11T10:57:34.196Z,23.60
2018-06-11T11:00:02.689Z,23.50
2018-06-11T11:02:31.168Z,23.20
2018-06-11T11:04:59.607Z,23.20
2018-06-11T11:07:28.111Z,23.10
2018-06-11T11:09:56.578Z,23.00
2018-06-11T11:12:25.022Z,23.00
2018-06-11T11:14:53.621Z,23.10
2018-06-11T11:17:24.742Z,23.10
2018-06-11T11:19:54.486Z,23.00
2018-06-11T11:22:23.225Z,23.00
2018-06-11T11:24:52.060Z,23.10
2018-06-11T11:27:20.643Z,23.30
2018-06-11T11:29:49.083Z,23.50
2018-06-11T11:32:17.575Z,23.60
2018-06-11T11:34:46.072Z,23.50
2018-06-11T11:37:14.653Z,23.50
2018-06-11T11:39:43.114Z,23.40
2018-06-11T11:42:11.589Z,23.30
2018-06-11T11:44:40.065Z,23.50
2018-06-11T11:49:37.978Z,23.30
2018-06-11T11:52:08.280Z,23.30
2018-06-11T11:54:37.169Z,23.20
2018-06-11T11:59:33.820Z,23.50
2018-06-11T12:02:02.695Z,23.60
2018-06-11T12:04:31.534Z,23.50
2018-06-11T12:07:00.174Z,23.60
2018-06-11T12:09:28.694Z,23.60
2018-06-11T12:11:57.138Z,23.50
2018-06-11T12:14:25.618Z,23.50
2018-06-11T12:16:54.083Z,23.60
2018-06-11T12:19:22.572Z,23.70
2018-06-11T12:21:51.037Z,23.50
2018-06-11T12:24:19.531Z,23.50
2018-06-11T12:26:48.002Z,23.60
2018-06-11T12:31:44.668Z,23.80
2018-06-11T12:36:41.351Z,24.00
2018-06-11T12:39:09.858Z,23.90
2018-06-11T12:41:38.335Z,23.80
2018-06-11T12:44:06.843Z,23.60
2018-06-11T12:46:35.371Z,23.50
2018-06-11T12:49:03.801Z,23.50
2018-06-11T12:51:32.278Z,23.40
2018-06-11T12:54:00.772Z,23.30
2018-06-11T12:56:29.235Z,23.30
2018-06-11T12:58:57.732Z,23.30
2018-06-11T13:01:26.202Z,23.30
2018-06-11T13:03:54.628Z,23.20
2018-06-11T13:06:23.127Z,23.20
2018-06-11T13:08:51.652Z,23.20
2018-06-11T13:13:48.316Z,23.20
2018-06-11T13:18:44.960Z,23.20
2018-06-11T13:23:41.709Z,23.10
2018-06-11T13:26:10.136Z,23.00
2018-06-11T13:28:39.759Z,22.80
2018-06-11T13:31:08.221Z,22.70
2018-06-11T13:36:04.871Z,22.70
2018-06-11T13:38:33.317Z,22.80
2018-06-11T13:41:02.121Z,22.90
2018-06-11T13:43:30.591Z,23.10
2018-06-11T13:45:59.054Z,23.30
2018-06-11T13:48:27.553Z,23.50
2018-06-11T13:50:56.039Z,23.60
2018-06-11T13:53:24.507Z,23.70
2018-06-11T13:55:52.953Z,23.90
2018-06-11T13:58:21.444Z,24.00
2018-06-11T14:00:49.937Z,24.00
2018-06-11T14:03:18.367Z,24.10
2018-06-11T14:05:46.877Z,24.10
2018-06-11T14:08:15.361Z,24.20
2018-06-11T14:10:43.826Z,24.20
2018-06-11T14:13:12.289Z,24.30
2018-06-11T14:15:40.762Z,24.40
2018-06-11T14:18:09.245Z,24.40
2018-06-11T14:20:37.704Z,24.30
2018-06-11T14:23:06.233Z,24.20
2018-06-11T14:25:34.718Z,24.10
2018-06-11T14:28:03.309Z,24.10
2018-06-11T14:30:31.806Z,24.00
2018-06-11T14:33:00.427Z,23.90
2018-06-11T14:35:28.884Z,23.70
2018-06-11T14:37:57.338Z,23.70
2018-06-11T14:42:54.052Z,23.80
2018-06-11T14:45:22.550Z,23.80
2018-06-11T14:47:51.131Z,23.60
2018-06-11T14:50:19.657Z,23.60
2018-06-11T14:57:44.778Z,23.30
2018-06-11T15:00:13.781Z,23.30
2018-06-11T15:02:42.658Z,23.30
2018-06-11T15:05:11.133Z,23.20
2018-06-11T15:07:39.685Z,23.30
2018-06-11T15:10:08.223Z,23.40
2018-06-11T15:12:36.748Z,23.30
2018-06-11T15:20:01.661Z,23.20
2018-06-11T15:22:30.155Z,23.10
2018-06-11T15:24:58.801Z,23.10
2018-06-11T15:27:27.294Z,23.00
2018-06-11T15:29:55.771Z,23.00
2018-06-11T15:32:24.674Z,23.10
2018-06-11T15:34:53.156Z,23.10
2018-06-11T15:37:22.353Z,23.20
2018-06-11T15:39:51.907Z,23.20
2018-06-11T15:42:20.396Z,23.20
2018-06-11T15:44:48.868Z,23.20
2018-06-11T15:47:17.325Z,23.10
2018-06-11T15:49:45.827Z,23.10
2018-06-11T15:52:14.301Z,23.00
2018-06-11T15:54:42.765Z,22.90
2018-06-11T15:57:11.259Z,22.90
2018-06-11T15:59:39.775Z,22.90
2018-06-11T16:02:08.292Z,22.90
2018-06-11T16:04:36.800Z,22.90
2018-06-11T16:07:05.439Z,22.80
2018-06-11T16:09:33.970Z,22.70
2018-06-11T16:12:02.636Z,22.70
2018-06-11T16:14:31.102Z,22.60
2018-06-11T16:16:59.684Z,22.60
2018-06-11T16:19:28.106Z,22.50
2018-06-11T16:21:56.587Z,22.50
2018-06-11T16:24:25.108Z,22.40
2018-06-11T16:26:53.561Z,22.40
2018-06-11T16:29:22.050Z,22.30
2018-06-11T16:34:18.761Z,22.30
2018-06-11T16:36:47.270Z,22.20
2018-06-11T16:39:15.740Z,22.20
2018-06-11T16:41:44.248Z,22.10
2018-06-11T16:44:12.716Z,22.10
2018-06-11T16:46:41.255Z,22.10
2018-06-11T16:49:09.967Z,22.00
2018-06-11T16:51:38.398Z,21.90
2018-06-11T16:54:06.881Z,21.90
2018-06-11T16:56:35.359Z,21.90
2018-06-11T16:59:03.799Z,21.90
2018-06-11T17:01:32.284Z,21.90
2018-06-11T17:04:00.722Z,21.90
2018-06-11T17:06:29.224Z,21.80
2018-06-11T17:08:57.715Z,21.70
2018-06-11T17:11:26.186Z,21.70
2018-06-11T17:13:54.663Z,21.60
2018-06-11T17:16:23.139Z,21.50
2018-06-11T17:18:52.220Z,21.50
2018-06-11T17:21:21.640Z,21.50
2018-06-11T17:23:50.175Z,21.50
2018-06-11T17:28:46.831Z,21.30
2018-06-11T17:31:15.275Z,21.30
2018-06-11T17:33:43.763Z,21.10
2018-06-11T17:36:12.277Z,21.10
2018-06-11T17:38:40.763Z,21.00
2018-06-11T17:41:09.201Z,20.90
2018-06-11T17:43:37.738Z,20.90
2018-06-11T17:46:06.241Z,20.90
2018-06-11T17:48:34.805Z,20.80
2018-06-11T17:51:03.494Z,20.70
2018-06-11T17:53:31.996Z,20.70
2018-06-11T17:56:00.447Z,20.50
2018-06-11T17:58:28.921Z,20.40
2018-06-11T18:00:57.426Z,20.40
2018-06-11T18:03:25.874Z,20.30
2018-06-11T18:05:54.379Z,20.20
2018-06-11T18:08:22.857Z,20.10
2018-06-11T18:10:51.339Z,20.00
2018-06-11T18:13:19.859Z,20.00
2018-06-11T18:15:48.372Z,20.00
2018-06-11T18:18:16.888Z,20.10
2018-06-11T18:20:45.374Z,20.10
2018-06-11T18:23:13.919Z,20.10
2018-06-11T18:25:42.355Z,20.00
2018-06-11T18:28:10.867Z,19.90
2018-06-11T18:30:39.435Z,19.80
2018-06-11T18:33:08.146Z,19.70
2018-06-11T18:35:36.652Z,19.60
2018-06-11T18:38:05.155Z,19.50
2018-06-11T18:43:01.974Z,19.40
2018-06-11T18:45:30.470Z,19.30
2018-06-11T18:47:58.951Z,19.20
2018-06-11T18:50:27.438Z,19.20
2018-06-11T18:52:55.927Z,19.20
2018-06-11T18:55:24.385Z,19.10
2018-06-11T18:57:52.871Z,19.10
2018-06-11T19:00:21.321Z,19.10
2018-06-11T19:02:49.785Z,19.10
2018-06-11T19:05:18.224Z,19.10
2018-06-11T19:07:47.018Z,19.10
2018-06-11T19:10:15.547Z,19.10
2018-06-11T19:12:44.017Z,19.00
2018-06-11T19:15:12.446Z,18.80
2018-06-11T19:17:40.963Z,18.70
2018-06-11T19:20:09.406Z,18.70
2018-06-11T19:22:37.902Z,18.60
2018-06-11T19:25:06.409Z,18.60
2018-06-11T19:27:34.903Z,18.50
2018-06-11T19:30:03.358Z,18.50
2018-06-11T19:32:31.825Z,18.40
2018-06-11T19:42:24.925Z,18.30
2018-06-11T19:44:53.492Z,18.30
2018-06-11T19:47:21.984Z,18.30
2018-06-11T19:49:50.497Z,18.30
2018-06-11T19:54:47.121Z,18.20
2018-06-11T19:57:16.346Z,18.20
2018-06-11T19:59:44.826Z,18.20
2018-06-11T20:02:13.288Z,18.30
2018-06-11T20:04:41.771Z,18.30
2018-06-11T20:07:10.199Z,18.20
2018-06-11T20:09:38.743Z,18.20
2018-06-11T20:12:07.228Z,18.20
2018-06-11T20:14:35.688Z,18.20
2018-06-11T20:17:04.166Z,18.20
2018-06-11T20:22:00.789Z,18.20
2018-06-11T20:24:29.207Z,18.10
2018-06-11T20:26:57.655Z,18.10
2018-06-11T20:29:26.083Z,18.00
2018-06-11T20:31:54.569Z,18.00
2018-06-11T20:36:51.193Z,17.90
2018-06-11T20:39:19.629Z,17.80
2018-06-11T20:41:48.100Z,17.80
2018-06-11T20:46:44.704Z,17.70
2018-06-11T20:49:13.155Z,17.60
2018-06-11T20:51:41.655Z,17.60
2018-06-11T20:54:10.089Z,17.60
2018-06-11T20:56:38.597Z,17.50
2018-06-11T20:59:07.068Z,17.50
2018-06-11T21:01:35.496Z,17.50
2018-06-11T21:04:03.934Z,17.40
2018-06-11T21:06:32.354Z,17.40
2018-06-11T21:09:00.813Z,17.40
2018-06-11T21:11:29.286Z,17.40
2018-06-11T21:13:57.930Z,17.40
2018-06-11T21:16:26.467Z,17.30
2018-06-11T21:18:54.934Z,17.30
2018-06-11T21:21:23.383Z,17.20
2018-06-11T21:23:52.002Z,17.20
2018-06-11T21:26:20.435Z,17.20
2018-06-11T21:28:48.929Z,17.20
2018-06-11T21:31:17.454Z,17.20
2018-06-11T21:33:45.886Z,17.20
2018-06-11T21:36:14.327Z,17.20
2018-06-11T21:38:42.791Z,17.10
2018-06-11T21:41:11.254Z,17.10
2018-06-11T21:46:08.604Z,17.00
2018-06-11T21:48:37.050Z,17.10
2018-06-11T21:51:05.729Z,17.00
2018-06-11T21:53:34.175Z,17.00
2018-06-11T21:56:02.630Z,17.00
2018-06-11T21:58:31.111Z,17.00
2018-06-11T22:00:59.634Z,17.00
2018-06-11T22:03:28.060Z,17.00
2018-06-11T22:05:57.066Z,16.90
2018-06-11T22:08:25.612Z,17.00
2018-06-11T22:10:54.140Z,17.00
2018-06-11T22:13:22.590Z,17.00
2018-06-11T22:18:19.201Z,17.00
2018-06-11T22:20:47.685Z,17.00
2018-06-11T22:23:16.164Z,17.00
2018-06-11T22:25:44.805Z,17.10
2018-06-11T22:28:13.363Z,17.10
2018-06-11T22:30:41.967Z,17.10
2018-06-11T22:33:10.602Z,17.00
2018-06-11T22:35:39.060Z,17.00
2018-06-11T22:40:35.697Z,17.00
2018-06-11T22:43:04.195Z,17.00
2018-06-11T22:48:00.887Z,17.00
2018-06-11T22:50:29.345Z,17.00
2018-06-11T22:52:57.804Z,17.00
2018-06-11T22:55:26.335Z,16.90
2018-06-11T22:57:54.823Z,16.90
2018-06-11T23:02:56.149Z,16.90
2018-06-11T23:05:24.872Z,16.90
2018-06-11T23:07:53.373Z,16.90
2018-06-11T23:12:50.077Z,16.90
2018-06-11T23:15:18.596Z,16.90
2018-06-11T23:20:15.422Z,16.90
2018-06-11T23:22:43.969Z,16.90
2018-06-11T23:25:12.550Z,16.90
2018-06-11T23:27:41.058Z,16.90
2018-06-11T23:30:09.619Z,16.80
2018-06-11T23:35:06.601Z,16.80
2018-06-11T23:37:35.128Z,16.80
2018-06-11T23:40:03.678Z,16.80
2018-06-11T23:45:00.428Z,16.70
2018-06-11T23:47:28.906Z,16.80
2018-06-11T23:49:57.405Z,16.80
2018-06-11T23:52:25.917Z,16.80
2018-06-11T23:54:54.429Z,16.80
2018-06-11T23:57:23.676Z,16.80
2018-06-11T23:59:52.187Z,16.80
